Yarrawonga, Victoria

5:43 PM EST on July 11, 2014 (GMT +1000)
Albury (YMAY) Elev 541 ft | 36.07 °S, 146.96 °E | Change Station

Current weather conditions updated 27 minutes ago

Overcast
Overcast
50 °F
Feels Like 50 °F
N
6
Wind Variable Wind from NNW

Tomorrow is forecast to be nearly the same temperature as today. Light rain in the morning.

Today
High -- | Low -- °F
--% Chance of Precip.
Yesterday
High -- | Low -- °F
Precip. -- in
7:25 AM 5:17 PM
Waxing Gibbous, 98% visible
Pressure 30.09 in
Visibility 6.2 miles
Clouds Scattered Clouds 1600 ft
Mostly Cloudy 2800 ft
Overcast 3500 ft
Dew Point 46 °F
Humidity 87%
Rainfall 0.00 in
Snow Depth Not available.
UV 0 out of 12
Pollen Not available.
Air Quality Not available.
Flu Activity Not available.
SPECI YMAY 110716Z AUTO 34005KT 9999 // SCT016 BKN028 OVC035 10/08 Q1019

More Conditions Fewer Conditions

Pressure 30.09 in
Visibility 6.2 miles
Clouds Scattered Clouds 1600 ft
Mostly Cloudy 2800 ft
Overcast 3500 ft
Dew Point 46 °F
Humidity 87%
Rainfall 0.00 in
Snow Depth Not available.
UV 0 out of 12
Pollen Not available.
Air Quality Not available.
Flu Activity Not available.
SPECI YMAY 110716Z AUTO 34005KT 9999 // SCT016 BKN028 OVC035 10/08 Q1019

More Conditions Fewer Conditions

10-Day Weather Forecast

Almanac

Astronomy

Jul. 11, 2014 Rise Set
Actual Time 7:25 AM EST 5:17 PM EST
Civil Twilight 6:57 AM EST 5:45 PM EST
Nautical Twilight 6:25 AM EST 6:17 PM EST
Astronomical Twilight 5:54 AM EST 6:48 PM EST
Moon 4:10 PM EST 5:38 AM EST
Length of Visible Light 10h 48m
Length of Day
9h 51m
Tomorrow will be 0m 55s longer.
Waxing Gibbous, 98% of the Moon is Illuminated
Today
Waxing Gibbous
Jul 12
Full
Jul 18
Last Quarter
Jul 26
New
Aug 3
First Quarter

Yesterday's Extremes

Country Highs Country Lows

Community

WunderPhotos

Upload Photos

1,732,407 photos uploaded!

Nearby

Snow Depth

Not available.

Earthquake Activity

City Distance Mag. Time & Date
No recent earthquake activity has been reported nearby.
Minimum magnitude displayed is 2.5.

Coastal Water Temperatures

Place Temperature
No Stations Reporting

Nearby Weather Stations

There are no personal weather stations in this area.